Minneapolis, Minnesota
Traffic Map
Current Weather Conditions
Minneapolis, Minnesota
Clear
Clear
40°
Feels Like: 40°
Wind Chill: 40° Ceiling: Unl
Heat Index: 40° Visibility: 10mi
Dew Point: 31° Wind: 0mph
Humidity: 70% Direction: ° ()
Pressure: 30.03in Gusts: 0mph
Raw Report DataKMSP 260853Z 00000KT 10SM CLR 04/M01 A3003 RMK AO2 SLP172 T00441006 58007
Traffic Incident Summary
Active as of:
Severity:
Category:
InformationThere was an issue retrieving the traffic information for this location. Please try a different location or try again shortly.
Advertisements
Track Severe Weather on mobile